sensor_id;sensor_type;location;lat;lon;timestamp;P1;durP1;ratioP1;P2;durP2;ratioP2
77152;SDS011;66124;51.146;17.072;2023-02-28T00:00:13;29.20;;;12.60;;
77152;SDS011;66124;51.146;17.072;2023-02-28T00:03:03;36.20;;;16.90;;
77152;SDS011;66124;51.146;17.072;2023-02-28T00:05:32;33.00;;;14.30;;
77152;SDS011;66124;51.146;17.072;2023-02-28T00:08:02;29.10;;;13.70;;
77152;SDS011;66124;51.146;17.072;2023-02-28T00:10:31;28.60;;;12.50;;
77152;SDS011;66124;51.146;17.072;2023-02-28T00:13:02;24.30;;;12.20;;
77152;SDS011;66124;51.146;17.072;2023-02-28T00:15:33;26.10;;;12.50;;
77152;SDS011;66124;51.146;17.072;2023-02-28T00:18:02;27.70;;;12.50;;
77152;SDS011;66124;51.146;17.072;2023-02-28T00:20:32;29.60;;;12.80;;
77152;SDS011;66124;51.146;17.072;2023-02-28T00:23:01;29.20;;;13.40;;
77152;SDS011;66124;51.146;17.072;2023-02-28T00:25:31;29.90;;;12.90;;
77152;SDS011;66124;51.146;17.072;2023-02-28T00:28:00;28.30;;;12.80;;
77152;SDS011;66124;51.146;17.072;2023-02-28T00:30:29;26.50;;;12.90;;
77152;SDS011;66124;51.146;17.072;2023-02-28T00:32:59;24.70;;;11.30;;
77152;SDS011;66124;51.146;17.072;2023-02-28T00:35:28;26.20;;;12.50;;
77152;SDS011;66124;51.146;17.072;2023-02-28T00:37:58;27.20;;;12.30;;
77152;SDS011;66124;51.146;17.072;2023-02-28T00:40:27;27.30;;;12.30;;
77152;SDS011;66124;51.146;17.072;2023-02-28T00:42:57;20.70;;;11.80;;
77152;SDS011;66124;51.146;17.072;2023-02-28T00:45:26;28.30;;;11.50;;
77152;SDS011;66124;51.146;17.072;2023-02-28T00:47:56;24.30;;;12.70;;
77152;SDS011;66124;51.146;17.072;2023-02-28T00:50:25;26.90;;;12.20;;
77152;SDS011;66124;51.146;17.072;2023-02-28T00:52:55;26.70;;;11.40;;
77152;SDS011;66124;51.146;17.072;2023-02-28T00:55:24;25.10;;;11.90;;
77152;SDS011;66124;51.146;17.072;2023-02-28T00:57:53;22.90;;;12.40;;
77152;SDS011;66124;51.146;17.072;2023-02-28T01:00:23;26.60;;;11.80;;
77152;SDS011;66124;51.146;17.072;2023-02-28T01:02:53;25.80;;;12.20;;
77152;SDS011;66124;51.146;17.072;2023-02-28T01:05:22;23.40;;;11.00;;
77152;SDS011;66124;51.146;17.072;2023-02-28T01:07:51;25.00;;;11.20;;
77152;SDS011;66124;51.146;17.072;2023-02-28T01:22:42;23.50;;;11.20;;
77152;SDS011;66124;51.146;17.072;2023-02-28T01:25:11;20.30;;;9.80;;
77152;SDS011;66124;51.146;17.072;2023-02-28T01:27:41;22.80;;;10.90;;
77152;SDS011;66124;51.146;17.072;2023-02-28T01:30:11;21.30;;;10.40;;
77152;SDS011;66124;51.146;17.072;2023-02-28T01:32:41;24.10;;;11.20;;
77152;SDS011;66124;51.146;17.072;2023-02-28T01:35:11;22.80;;;10.70;;
77152;SDS011;66124;51.146;17.072;2023-02-28T01:37:40;19.80;;;10.10;;
77152;SDS011;66124;51.146;17.072;2023-02-28T01:40:10;24.50;;;10.80;;
77152;SDS011;66124;51.146;17.072;2023-02-28T01:42:41;21.20;;;10.90;;
77152;SDS011;66124;51.146;17.072;2023-02-28T01:45:21;22.50;;;11.10;;
77152;SDS011;66124;51.146;17.072;2023-02-28T01:47:53;23.00;;;10.80;;
77152;SDS011;66124;51.146;17.072;2023-02-28T01:50:29;22.20;;;9.70;;
77152;SDS011;66124;51.146;17.072;2023-02-28T01:53:04;22.80;;;10.60;;
77152;SDS011;66124;51.146;17.072;2023-02-28T01:55:39;19.80;;;10.60;;
77152;SDS011;66124;51.146;17.072;2023-02-28T01:58:12;23.10;;;10.60;;
77152;SDS011;66124;51.146;17.072;2023-02-28T02:00:43;22.30;;;10.70;;
77152;SDS011;66124;51.146;17.072;2023-02-28T02:03:13;23.30;;;10.80;;
77152;SDS011;66124;51.146;17.072;2023-02-28T02:05:45;23.50;;;9.90;;
77152;SDS011;66124;51.146;17.072;2023-02-28T02:08:16;20.70;;;10.00;;
77152;SDS011;66124;51.146;17.072;2023-02-28T02:10:49;21.50;;;9.80;;
77152;SDS011;66124;51.146;17.072;2023-02-28T02:13:22;24.30;;;10.20;;
77152;SDS011;66124;51.146;17.072;2023-02-28T02:16:04;22.20;;;10.10;;
77152;SDS011;66124;51.146;17.072;2023-02-28T02:18:42;23.20;;;11.60;;
77152;SDS011;66124;51.146;17.072;2023-02-28T02:21:23;23.40;;;10.80;;
77152;SDS011;66124;51.146;17.072;2023-02-28T02:24:35;22.30;;;10.10;;
77152;SDS011;66124;51.146;17.072;2023-02-28T02:27:38;21.70;;;9.90;;
77152;SDS011;66124;51.146;17.072;2023-02-28T02:30:28;17.70;;;9.30;;
77152;SDS011;66124;51.146;17.072;2023-02-28T02:38:59;22.30;;;11.40;;
77152;SDS011;66124;51.146;17.072;2023-02-28T02:41:40;23.60;;;11.10;;
77152;SDS011;66124;51.146;17.072;2023-02-28T02:46:49;24.20;;;11.00;;
77152;SDS011;66124;51.146;17.072;2023-02-28T02:49:24;22.60;;;11.10;;
77152;SDS011;66124;51.146;17.072;2023-02-28T02:51:56;22.30;;;11.70;;
77152;SDS011;66124;51.146;17.072;2023-02-28T02:54:30;23.20;;;10.20;;
77152;SDS011;66124;51.146;17.072;2023-02-28T02:59:32;23.80;;;10.30;;
77152;SDS011;66124;51.146;17.072;2023-02-28T03:02:06;23.10;;;10.80;;
77152;SDS011;66124;51.146;17.072;2023-02-28T03:04:39;21.90;;;10.60;;
77152;SDS011;66124;51.146;17.072;2023-02-28T03:07:11;21.40;;;10.30;;
77152;SDS011;66124;51.146;17.072;2023-02-28T03:09:49;21.10;;;9.90;;
77152;SDS011;66124;51.146;17.072;2023-02-28T03:12:19;20.80;;;10.10;;
77152;SDS011;66124;51.146;17.072;2023-02-28T03:14:54;20.30;;;9.70;;
77152;SDS011;66124;51.146;17.072;2023-02-28T03:17:47;17.80;;;8.80;;
77152;SDS011;66124;51.146;17.072;2023-02-28T03:20:30;19.00;;;8.70;;
77152;SDS011;66124;51.146;17.072;2023-02-28T03:23:10;19.30;;;9.10;;
77152;SDS011;66124;51.146;17.072;2023-02-28T03:25:49;19.30;;;9.10;;
77152;SDS011;66124;51.146;17.072;2023-02-28T03:28:27;19.40;;;9.30;;
77152;SDS011;66124;51.146;17.072;2023-02-28T03:31:06;19.90;;;10.00;;
77152;SDS011;66124;51.146;17.072;2023-02-28T03:33:43;17.20;;;8.90;;
77152;SDS011;66124;51.146;17.072;2023-02-28T03:36:17;19.60;;;9.40;;
77152;SDS011;66124;51.146;17.072;2023-02-28T03:38:51;20.10;;;10.20;;
77152;SDS011;66124;51.146;17.072;2023-02-28T03:41:25;20.80;;;10.70;;
77152;SDS011;66124;51.146;17.072;2023-02-28T03:44:00;16.60;;;8.80;;
77152;SDS011;66124;51.146;17.072;2023-02-28T03:46:36;21.00;;;10.40;;
77152;SDS011;66124;51.146;17.072;2023-02-28T03:55:25;17.20;;;8.40;;
77152;SDS011;66124;51.146;17.072;2023-02-28T03:57:58;21.10;;;10.10;;
77152;SDS011;66124;51.146;17.072;2023-02-28T04:00:34;20.40;;;10.80;;
77152;SDS011;66124;51.146;17.072;2023-02-28T04:03:07;22.40;;;10.80;;
77152;SDS011;66124;51.146;17.072;2023-02-28T04:05:45;22.00;;;10.40;;
77152;SDS011;66124;51.146;17.072;2023-02-28T04:08:18;20.00;;;10.00;;
77152;SDS011;66124;51.146;17.072;2023-02-28T04:10:55;19.40;;;9.60;;
77152;SDS011;66124;51.146;17.072;2023-02-28T04:13:29;20.20;;;9.70;;
77152;SDS011;66124;51.146;17.072;2023-02-28T04:15:59;20.10;;;9.60;;
77152;SDS011;66124;51.146;17.072;2023-02-28T04:18:28;14.80;;;9.00;;
77152;SDS011;66124;51.146;17.072;2023-02-28T04:20:59;19.00;;;9.50;;
77152;SDS011;66124;51.146;17.072;2023-02-28T04:23:29;20.60;;;10.00;;
77152;SDS011;66124;51.146;17.072;2023-02-28T04:25:59;18.00;;;9.00;;
77152;SDS011;66124;51.146;17.072;2023-02-28T04:28:28;15.80;;;9.10;;
77152;SDS011;66124;51.146;17.072;2023-02-28T04:30:58;20.20;;;9.90;;
77152;SDS011;66124;51.146;17.072;2023-02-28T04:33:28;17.30;;;8.30;;
77152;SDS011;66124;51.146;17.072;2023-02-28T04:36:00;21.20;;;9.70;;
77152;SDS011;66124;51.146;17.072;2023-02-28T04:38:31;23.80;;;10.30;;
77152;SDS011;66124;51.146;17.072;2023-02-28T04:41:03;17.90;;;9.00;;
77152;SDS011;66124;51.146;17.072;2023-02-28T04:43:33;19.60;;;9.60;;
77152;SDS011;66124;51.146;17.072;2023-02-28T04:46:03;21.60;;;11.80;;
77152;SDS011;66124;51.146;17.072;2023-02-28T04:48:34;22.20;;;10.60;;
77152;SDS011;66124;51.146;17.072;2023-02-28T04:51:06;18.20;;;9.10;;
77152;SDS011;66124;51.146;17.072;2023-02-28T04:56:06;21.00;;;9.30;;
77152;SDS011;66124;51.146;17.072;2023-02-28T04:58:38;19.90;;;9.50;;
77152;SDS011;66124;51.146;17.072;2023-02-28T05:01:14;18.80;;;9.20;;
77152;SDS011;66124;51.146;17.072;2023-02-28T05:03:47;17.50;;;9.40;;
77152;SDS011;66124;51.146;17.072;2023-02-28T05:09:39;21.70;;;9.40;;
77152;SDS011;66124;51.146;17.072;2023-02-28T05:12:09;19.70;;;8.70;;
77152;SDS011;66124;51.146;17.072;2023-02-28T05:14:39;16.60;;;8.70;;
77152;SDS011;66124;51.146;17.072;2023-02-28T05:17:09;15.70;;;9.00;;
77152;SDS011;66124;51.146;17.072;2023-02-28T05:19:39;20.30;;;9.90;;
77152;SDS011;66124;51.146;17.072;2023-02-28T05:22:13;18.90;;;8.50;;
77152;SDS011;66124;51.146;17.072;2023-02-28T05:24:43;16.00;;;8.50;;
77152;SDS011;66124;51.146;17.072;2023-02-28T05:27:12;15.70;;;8.90;;
77152;SDS011;66124;51.146;17.072;2023-02-28T05:29:41;16.60;;;8.20;;
77152;SDS011;66124;51.146;17.072;2023-02-28T05:32:11;14.80;;;8.00;;
77152;SDS011;66124;51.146;17.072;2023-02-28T05:34:40;19.10;;;9.90;;
77152;SDS011;66124;51.146;17.072;2023-02-28T05:43:39;20.90;;;10.80;;
77152;SDS011;66124;51.146;17.072;2023-02-28T05:46:09;22.50;;;10.50;;
77152;SDS011;66124;51.146;17.072;2023-02-28T05:48:39;20.90;;;10.40;;
77152;SDS011;66124;51.146;17.072;2023-02-28T05:51:10;20.50;;;10.90;;
77152;SDS011;66124;51.146;17.072;2023-02-28T05:53:39;22.30;;;10.90;;
77152;SDS011;66124;51.146;17.072;2023-02-28T05:56:08;23.40;;;11.70;;
77152;SDS011;66124;51.146;17.072;2023-02-28T05:58:38;13.30;;;7.50;;
77152;SDS011;66124;51.146;17.072;2023-02-28T06:01:24;21.90;;;10.20;;
77152;SDS011;66124;51.146;17.072;2023-02-28T06:03:59;21.40;;;10.30;;
77152;SDS011;66124;51.146;17.072;2023-02-28T06:06:30;22.30;;;10.50;;
77152;SDS011;66124;51.146;17.072;2023-02-28T06:08:59;26.10;;;10.50;;
77152;SDS011;66124;51.146;17.072;2023-02-28T06:11:29;20.40;;;10.70;;
77152;SDS011;66124;51.146;17.072;2023-02-28T06:13:59;24.70;;;11.50;;
77152;SDS011;66124;51.146;17.072;2023-02-28T06:16:30;21.70;;;10.80;;
77152;SDS011;66124;51.146;17.072;2023-02-28T06:19:01;22.80;;;11.10;;
77152;SDS011;66124;51.146;17.072;2023-02-28T06:21:31;21.70;;;9.60;;
77152;SDS011;66124;51.146;17.072;2023-02-28T06:24:01;24.60;;;11.10;;
77152;SDS011;66124;51.146;17.072;2023-02-28T06:26:31;24.70;;;12.30;;
77152;SDS011;66124;51.146;17.072;2023-02-28T06:29:00;22.10;;;11.40;;
77152;SDS011;66124;51.146;17.072;2023-02-28T06:31:30;22.50;;;10.10;;
77152;SDS011;66124;51.146;17.072;2023-02-28T06:33:59;18.30;;;9.20;;
77152;SDS011;66124;51.146;17.072;2023-02-28T06:36:29;19.90;;;9.10;;
77152;SDS011;66124;51.146;17.072;2023-02-28T06:38:58;18.60;;;8.90;;
77152;SDS011;66124;51.146;17.072;2023-02-28T06:41:27;15.20;;;9.10;;
77152;SDS011;66124;51.146;17.072;2023-02-28T06:43:57;18.00;;;10.30;;
77152;SDS011;66124;51.146;17.072;2023-02-28T06:46:26;18.10;;;8.80;;
77152;SDS011;66124;51.146;17.072;2023-02-28T06:48:55;18.20;;;8.60;;
77152;SDS011;66124;51.146;17.072;2023-02-28T06:51:25;14.30;;;7.70;;
77152;SDS011;66124;51.146;17.072;2023-02-28T06:59:08;13.80;;;8.00;;
77152;SDS011;66124;51.146;17.072;2023-02-28T07:01:37;14.70;;;7.50;;
77152;SDS011;66124;51.146;17.072;2023-02-28T07:04:07;11.70;;;7.20;;
77152;SDS011;66124;51.146;17.072;2023-02-28T07:06:36;13.10;;;7.40;;
77152;SDS011;66124;51.146;17.072;2023-02-28T07:09:06;12.10;;;6.40;;
77152;SDS011;66124;51.146;17.072;2023-02-28T07:11:36;10.40;;;7.00;;
77152;SDS011;66124;51.146;17.072;2023-02-28T07:14:06;12.00;;;6.60;;
77152;SDS011;66124;51.146;17.072;2023-02-28T07:16:36;11.40;;;6.30;;
77152;SDS011;66124;51.146;17.072;2023-02-28T07:19:05;9.70;;;6.00;;
77152;SDS011;66124;51.146;17.072;2023-02-28T07:21:35;8.90;;;6.00;;
77152;SDS011;66124;51.146;17.072;2023-02-28T07:24:05;9.50;;;5.80;;
77152;SDS011;66124;51.146;17.072;2023-02-28T07:26:35;9.00;;;5.60;;
77152;SDS011;66124;51.146;17.072;2023-02-28T07:29:04;10.20;;;6.80;;
77152;SDS011;66124;51.146;17.072;2023-02-28T07:31:34;9.10;;;5.30;;
77152;SDS011;66124;51.146;17.072;2023-02-28T07:34:03;9.40;;;6.00;;
77152;SDS011;66124;51.146;17.072;2023-02-28T07:36:32;9.20;;;5.80;;
77152;SDS011;66124;51.146;17.072;2023-02-28T07:39:02;8.80;;;5.60;;
77152;SDS011;66124;51.146;17.072;2023-02-28T07:41:31;8.50;;;5.30;;
77152;SDS011;66124;51.146;17.072;2023-02-28T07:44:01;10.70;;;5.80;;
77152;SDS011;66124;51.146;17.072;2023-02-28T07:46:30;9.10;;;5.40;;
77152;SDS011;66124;51.146;17.072;2023-02-28T07:48:59;8.90;;;5.20;;
77152;SDS011;66124;51.146;17.072;2023-02-28T07:51:29;11.00;;;5.80;;
77152;SDS011;66124;51.146;17.072;2023-02-28T07:53:59;10.40;;;6.20;;
77152;SDS011;66124;51.146;17.072;2023-02-28T07:56:28;9.20;;;5.70;;
77152;SDS011;66124;51.146;17.072;2023-02-28T07:58:58;9.50;;;5.80;;
77152;SDS011;66124;51.146;17.072;2023-02-28T08:01:27;18.30;;;9.40;;
77152;SDS011;66124;51.146;17.072;2023-02-28T08:03:57;14.10;;;7.50;;
77152;SDS011;66124;51.146;17.072;2023-02-28T08:06:26;12.70;;;5.30;;
77152;SDS011;66124;51.146;17.072;2023-02-28T08:08:55;13.20;;;6.90;;
77152;SDS011;66124;51.146;17.072;2023-02-28T08:17:29;11.00;;;6.10;;
77152;SDS011;66124;51.146;17.072;2023-02-28T08:19:58;7.20;;;5.00;;
77152;SDS011;66124;51.146;17.072;2023-02-28T08:22:27;9.50;;;5.60;;
77152;SDS011;66124;51.146;17.072;2023-02-28T08:24:57;8.90;;;4.60;;
77152;SDS011;66124;51.146;17.072;2023-02-28T08:27:26;9.20;;;4.50;;
77152;SDS011;66124;51.146;17.072;2023-02-28T08:29:57;6.70;;;4.10;;
77152;SDS011;66124;51.146;17.072;2023-02-28T08:32:27;7.50;;;4.50;;
77152;SDS011;66124;51.146;17.072;2023-02-28T08:34:56;9.40;;;4.90;;
77152;SDS011;66124;51.146;17.072;2023-02-28T08:37:26;7.70;;;4.60;;
77152;SDS011;66124;51.146;17.072;2023-02-28T08:39:55;6.90;;;5.10;;
77152;SDS011;66124;51.146;17.072;2023-02-28T08:42:24;8.50;;;4.30;;
77152;SDS011;66124;51.146;17.072;2023-02-28T08:44:54;7.40;;;4.80;;
77152;SDS011;66124;51.146;17.072;2023-02-28T08:47:23;6.30;;;3.90;;
77152;SDS011;66124;51.146;17.072;2023-02-28T08:49:52;6.80;;;3.80;;
77152;SDS011;66124;51.146;17.072;2023-02-28T08:52:22;6.30;;;3.90;;
77152;SDS011;66124;51.146;17.072;2023-02-28T08:54:51;6.10;;;4.00;;
77152;SDS011;66124;51.146;17.072;2023-02-28T08:57:20;7.30;;;3.90;;
77152;SDS011;66124;51.146;17.072;2023-02-28T08:59:50;5.60;;;3.40;;
77152;SDS011;66124;51.146;17.072;2023-02-28T09:02:19;5.00;;;3.10;;
77152;SDS011;66124;51.146;17.072;2023-02-28T09:04:48;4.20;;;2.60;;
77152;SDS011;66124;51.146;17.072;2023-02-28T09:07:18;6.10;;;3.80;;
77152;SDS011;66124;51.146;17.072;2023-02-28T09:09:47;5.90;;;3.20;;
77152;SDS011;66124;51.146;17.072;2023-02-28T09:12:17;4.30;;;3.20;;
77152;SDS011;66124;51.146;17.072;2023-02-28T09:14:46;5.60;;;3.70;;
77152;SDS011;66124;51.146;17.072;2023-02-28T09:17:15;5.40;;;3.70;;
77152;SDS011;66124;51.146;17.072;2023-02-28T09:19:48;6.50;;;3.70;;
77152;SDS011;66124;51.146;17.072;2023-02-28T09:22:17;6.50;;;2.90;;
77152;SDS011;66124;51.146;17.072;2023-02-28T09:24:47;4.70;;;3.20;;
77152;SDS011;66124;51.146;17.072;2023-02-28T09:27:16;2.50;;;1.70;;
77152;SDS011;66124;51.146;17.072;2023-02-28T09:53:13;6.30;;;4.10;;
77152;SDS011;66124;51.146;17.072;2023-02-28T09:55:48;6.80;;;3.50;;
77152;SDS011;66124;51.146;17.072;2023-02-28T09:58:23;6.60;;;3.60;;
77152;SDS011;66124;51.146;17.072;2023-02-28T10:01:00;6.50;;;3.90;;
77152;SDS011;66124;51.146;17.072;2023-02-28T10:03:36;5.70;;;3.60;;
77152;SDS011;66124;51.146;17.072;2023-02-28T10:06:12;5.20;;;3.10;;
77152;SDS011;66124;51.146;17.072;2023-02-28T10:08:47;5.30;;;3.20;;
77152;SDS011;66124;51.146;17.072;2023-02-28T10:11:24;4.30;;;2.50;;
77152;SDS011;66124;51.146;17.072;2023-02-28T10:13:56;5.40;;;3.20;;
77152;SDS011;66124;51.146;17.072;2023-02-28T10:16:30;5.80;;;3.70;;
77152;SDS011;66124;51.146;17.072;2023-02-28T10:19:04;6.10;;;3.40;;
77152;SDS011;66124;51.146;17.072;2023-02-28T10:21:41;7.30;;;3.80;;
77152;SDS011;66124;51.146;17.072;2023-02-28T10:24:16;6.00;;;3.30;;
77152;SDS011;66124;51.146;17.072;2023-02-28T10:26:50;7.90;;;3.20;;
77152;SDS011;66124;51.146;17.072;2023-02-28T10:29:24;6.10;;;3.40;;
77152;SDS011;66124;51.146;17.072;2023-02-28T10:31:53;7.70;;;4.20;;
77152;SDS011;66124;51.146;17.072;2023-02-28T10:34:23;6.20;;;3.90;;
77152;SDS011;66124;51.146;17.072;2023-02-28T10:36:53;5.60;;;3.10;;
77152;SDS011;66124;51.146;17.072;2023-02-28T10:42:21;5.90;;;3.20;;
77152;SDS011;66124;51.146;17.072;2023-02-28T10:47:48;6.70;;;3.70;;
77152;SDS011;66124;51.146;17.072;2023-02-28T10:50:30;5.90;;;3.10;;
77152;SDS011;66124;51.146;17.072;2023-02-28T10:53:16;5.60;;;3.60;;
77152;SDS011;66124;51.146;17.072;2023-02-28T10:55:58;5.10;;;3.70;;
77152;SDS011;66124;51.146;17.072;2023-02-28T10:58:30;5.60;;;3.10;;
77152;SDS011;66124;51.146;17.072;2023-02-28T11:01:14;5.60;;;2.70;;
77152;SDS011;66124;51.146;17.072;2023-02-28T11:03:46;3.30;;;2.20;;
77152;SDS011;66124;51.146;17.072;2023-02-28T11:12:21;6.40;;;3.60;;
77152;SDS011;66124;51.146;17.072;2023-02-28T11:14:54;5.90;;;3.30;;
77152;SDS011;66124;51.146;17.072;2023-02-28T11:17:28;8.00;;;4.30;;
77152;SDS011;66124;51.146;17.072;2023-02-28T11:22:29;6.40;;;4.10;;
77152;SDS011;66124;51.146;17.072;2023-02-28T11:25:06;5.40;;;3.70;;
77152;SDS011;66124;51.146;17.072;2023-02-28T11:27:45;6.70;;;4.10;;
77152;SDS011;66124;51.146;17.072;2023-02-28T11:30:28;5.80;;;4.30;;
77152;SDS011;66124;51.146;17.072;2023-02-28T11:32:59;7.50;;;4.20;;
77152;SDS011;66124;51.146;17.072;2023-02-28T11:35:46;7.60;;;4.30;;
77152;SDS011;66124;51.146;17.072;2023-02-28T11:38:17;7.10;;;4.20;;
77152;SDS011;66124;51.146;17.072;2023-02-28T11:40:48;7.60;;;4.60;;
77152;SDS011;66124;51.146;17.072;2023-02-28T11:43:34;7.60;;;5.30;;
77152;SDS011;66124;51.146;17.072;2023-02-28T11:46:20;6.70;;;4.60;;
77152;SDS011;66124;51.146;17.072;2023-02-28T11:49:01;8.10;;;5.10;;
77152;SDS011;66124;51.146;17.072;2023-02-28T11:51:42;8.90;;;4.80;;
77152;SDS011;66124;51.146;17.072;2023-02-28T11:54:25;9.90;;;6.00;;
77152;SDS011;66124;51.146;17.072;2023-02-28T11:57:08;9.50;;;5.70;;
77152;SDS011;66124;51.146;17.072;2023-02-28T11:59:54;11.70;;;6.00;;
77152;SDS011;66124;51.146;17.072;2023-02-28T12:02:31;7.40;;;4.90;;
77152;SDS011;66124;51.146;17.072;2023-02-28T12:05:17;8.50;;;5.00;;
77152;SDS011;66124;51.146;17.072;2023-02-28T12:07:58;8.60;;;5.90;;
77152;SDS011;66124;51.146;17.072;2023-02-28T12:10:44;11.00;;;6.20;;
77152;SDS011;66124;51.146;17.072;2023-02-28T12:13:29;8.80;;;6.10;;
77152;SDS011;66124;51.146;17.072;2023-02-28T12:16:20;9.70;;;5.80;;
77152;SDS011;66124;51.146;17.072;2023-02-28T12:19:09;10.00;;;5.50;;
77152;SDS011;66124;51.146;17.072;2023-02-28T12:32:21;8.90;;;5.60;;
77152;SDS011;66124;51.146;17.072;2023-02-28T12:34:56;10.40;;;6.40;;
77152;SDS011;66124;51.146;17.072;2023-02-28T12:37:31;10.10;;;6.50;;
77152;SDS011;66124;51.146;17.072;2023-02-28T12:40:06;10.70;;;6.70;;
77152;SDS011;66124;51.146;17.072;2023-02-28T12:42:40;9.10;;;6.70;;
77152;SDS011;66124;51.146;17.072;2023-02-28T12:45:15;9.60;;;6.30;;
77152;SDS011;66124;51.146;17.072;2023-02-28T12:47:48;7.90;;;6.20;;
77152;SDS011;66124;51.146;17.072;2023-02-28T12:50:22;8.50;;;5.50;;
77152;SDS011;66124;51.146;17.072;2023-02-28T12:52:55;10.90;;;5.90;;
77152;SDS011;66124;51.146;17.072;2023-02-28T12:55:31;9.90;;;6.30;;
77152;SDS011;66124;51.146;17.072;2023-02-28T12:58:10;8.60;;;5.30;;
77152;SDS011;66124;51.146;17.072;2023-02-28T13:00:52;10.80;;;6.60;;
77152;SDS011;66124;51.146;17.072;2023-02-28T13:04:05;7.80;;;5.60;;
77152;SDS011;66124;51.146;17.072;2023-02-28T13:06:52;8.80;;;5.80;;
77152;SDS011;66124;51.146;17.072;2023-02-28T13:09:34;9.40;;;6.00;;
77152;SDS011;66124;51.146;17.072;2023-02-28T13:12:07;9.30;;;5.70;;
77152;SDS011;66124;51.146;17.072;2023-02-28T13:14:42;9.30;;;6.50;;
77152;SDS011;66124;51.146;17.072;2023-02-28T13:17:16;9.20;;;6.40;;
77152;SDS011;66124;51.146;17.072;2023-02-28T13:19:56;10.50;;;6.60;;
77152;SDS011;66124;51.146;17.072;2023-02-28T13:22:40;10.10;;;6.30;;
77152;SDS011;66124;51.146;17.072;2023-02-28T13:31:33;9.90;;;7.10;;
77152;SDS011;66124;51.146;17.072;2023-02-28T13:34:39;11.40;;;7.70;;
77152;SDS011;66124;51.146;17.072;2023-02-28T13:52:36;10.70;;;6.90;;
77152;SDS011;66124;51.146;17.072;2023-02-28T13:58:10;9.30;;;7.20;;
77152;SDS011;66124;51.146;17.072;2023-02-28T14:01:02;9.50;;;6.80;;
77152;SDS011;66124;51.146;17.072;2023-02-28T14:06:57;11.00;;;7.70;;
77152;SDS011;66124;51.146;17.072;2023-02-28T14:11:59;8.90;;;7.90;;
77152;SDS011;66124;51.146;17.072;2023-02-28T14:17:53;10.70;;;8.30;;
77152;SDS011;66124;51.146;17.072;2023-02-28T14:20:25;10.70;;;8.20;;
77152;SDS011;66124;51.146;17.072;2023-02-28T14:23:00;10.90;;;7.90;;
77152;SDS011;66124;51.146;17.072;2023-02-28T14:25:38;10.00;;;8.20;;
77152;SDS011;66124;51.146;17.072;2023-02-28T14:28:17;10.90;;;8.80;;
77152;SDS011;66124;51.146;17.072;2023-02-28T14:31:01;10.60;;;8.50;;
77152;SDS011;66124;51.146;17.072;2023-02-28T14:33:41;11.60;;;8.20;;
77152;SDS011;66124;51.146;17.072;2023-02-28T14:36:22;11.10;;;8.20;;
77152;SDS011;66124;51.146;17.072;2023-02-28T14:38:58;10.20;;;7.90;;
77152;SDS011;66124;51.146;17.072;2023-02-28T14:41:33;10.10;;;7.60;;
77152;SDS011;66124;51.146;17.072;2023-02-28T14:44:14;10.90;;;7.20;;
77152;SDS011;66124;51.146;17.072;2023-02-28T14:46:46;8.50;;;7.50;;
77152;SDS011;66124;51.146;17.072;2023-02-28T14:49:18;11.00;;;7.90;;
77152;SDS011;66124;51.146;17.072;2023-02-28T14:51:50;9.80;;;8.00;;
77152;SDS011;66124;51.146;17.072;2023-02-28T14:54:32;8.40;;;7.20;;
77152;SDS011;66124;51.146;17.072;2023-02-28T14:57:02;8.80;;;7.70;;
77152;SDS011;66124;51.146;17.072;2023-02-28T14:59:32;10.00;;;7.70;;
77152;SDS011;66124;51.146;17.072;2023-02-28T15:02:17;9.60;;;8.10;;
77152;SDS011;66124;51.146;17.072;2023-02-28T15:12:35;9.60;;;6.30;;
77152;SDS011;66124;51.146;17.072;2023-02-28T15:15:13;9.70;;;6.00;;
77152;SDS011;66124;51.146;17.072;2023-02-28T15:17:45;8.90;;;5.40;;
77152;SDS011;66124;51.146;17.072;2023-02-28T15:20:17;9.90;;;6.60;;
77152;SDS011;66124;51.146;17.072;2023-02-28T15:22:48;8.50;;;5.30;;
77152;SDS011;66124;51.146;17.072;2023-02-28T15:25:19;7.10;;;4.80;;
77152;SDS011;66124;51.146;17.072;2023-02-28T15:27:50;10.70;;;7.10;;
77152;SDS011;66124;51.146;17.072;2023-02-28T15:30:24;11.00;;;6.10;;
77152;SDS011;66124;51.146;17.072;2023-02-28T15:33:17;9.80;;;5.40;;
77152;SDS011;66124;51.146;17.072;2023-02-28T15:35:49;7.90;;;4.20;;
77152;SDS011;66124;51.146;17.072;2023-02-28T15:38:21;6.70;;;4.40;;
77152;SDS011;66124;51.146;17.072;2023-02-28T15:40:52;5.90;;;4.20;;
77152;SDS011;66124;51.146;17.072;2023-02-28T15:43:27;10.50;;;4.70;;
77152;SDS011;66124;51.146;17.072;2023-02-28T15:45:59;10.00;;;5.20;;
77152;SDS011;66124;51.146;17.072;2023-02-28T15:48:32;12.20;;;4.80;;
77152;SDS011;66124;51.146;17.072;2023-02-28T15:51:05;8.30;;;5.00;;
77152;SDS011;66124;51.146;17.072;2023-02-28T15:53:37;6.30;;;3.60;;
77152;SDS011;66124;51.146;17.072;2023-02-28T15:56:20;6.50;;;4.30;;
77152;SDS011;66124;51.146;17.072;2023-02-28T15:58:54;10.40;;;5.30;;
77152;SDS011;66124;51.146;17.072;2023-02-28T16:01:27;10.80;;;5.30;;
77152;SDS011;66124;51.146;17.072;2023-02-28T16:03:59;7.40;;;4.70;;
77152;SDS011;66124;51.146;17.072;2023-02-28T16:06:38;9.00;;;4.20;;
77152;SDS011;66124;51.146;17.072;2023-02-28T16:09:08;6.80;;;4.20;;
77152;SDS011;66124;51.146;17.072;2023-02-28T16:11:40;9.40;;;5.00;;
77152;SDS011;66124;51.146;17.072;2023-02-28T16:14:14;9.40;;;6.60;;
77152;SDS011;66124;51.146;17.072;2023-02-28T16:16:46;9.80;;;6.10;;
77152;SDS011;66124;51.146;17.072;2023-02-28T16:19:17;9.80;;;5.90;;
77152;SDS011;66124;51.146;17.072;2023-02-28T16:38:36;13.80;;;7.00;;
77152;SDS011;66124;51.146;17.072;2023-02-28T16:41:03;10.30;;;5.70;;
77152;SDS011;66124;51.146;17.072;2023-02-28T16:43:32;11.40;;;6.90;;
77152;SDS011;66124;51.146;17.072;2023-02-28T16:45:59;9.50;;;6.10;;
77152;SDS011;66124;51.146;17.072;2023-02-28T16:48:27;11.90;;;6.80;;
77152;SDS011;66124;51.146;17.072;2023-02-28T16:50:54;11.20;;;6.70;;
77152;SDS011;66124;51.146;17.072;2023-02-28T16:53:22;12.50;;;6.10;;
77152;SDS011;66124;51.146;17.072;2023-02-28T16:55:49;11.90;;;7.00;;
77152;SDS011;66124;51.146;17.072;2023-02-28T17:04:21;15.20;;;9.10;;
77152;SDS011;66124;51.146;17.072;2023-02-28T17:06:51;13.60;;;8.10;;
77152;SDS011;66124;51.146;17.072;2023-02-28T17:09:21;21.30;;;10.90;;
77152;SDS011;66124;51.146;17.072;2023-02-28T17:11:51;18.50;;;10.10;;
77152;SDS011;66124;51.146;17.072;2023-02-28T17:14:21;19.80;;;10.70;;
77152;SDS011;66124;51.146;17.072;2023-02-28T17:16:50;18.20;;;9.60;;
77152;SDS011;66124;51.146;17.072;2023-02-28T17:19:19;16.20;;;9.30;;
77152;SDS011;66124;51.146;17.072;2023-02-28T17:21:49;20.50;;;10.70;;
77152;SDS011;66124;51.146;17.072;2023-02-28T17:24:18;18.20;;;10.40;;
77152;SDS011;66124;51.146;17.072;2023-02-28T17:26:47;17.90;;;11.10;;
77152;SDS011;66124;51.146;17.072;2023-02-28T17:29:18;20.10;;;11.60;;
77152;SDS011;66124;51.146;17.072;2023-02-28T17:31:48;19.10;;;11.00;;
77152;SDS011;66124;51.146;17.072;2023-02-28T17:34:17;15.70;;;8.80;;
77152;SDS011;66124;51.146;17.072;2023-02-28T17:36:47;19.10;;;10.80;;
77152;SDS011;66124;51.146;17.072;2023-02-28T17:39:18;16.40;;;9.10;;
77152;SDS011;66124;51.146;17.072;2023-02-28T17:41:48;19.10;;;9.70;;
77152;SDS011;66124;51.146;17.072;2023-02-28T17:44:17;16.50;;;9.60;;